createdAt,value
2018-05-21T00:05:34.316Z,6.62
2018-05-21T00:11:29.348Z,7.27
2018-05-21T00:17:24.331Z,6.76
2018-05-21T00:23:19.362Z,5.99
2018-05-21T00:29:14.336Z,5.89
2018-05-21T00:35:09.344Z,4.62
2018-05-21T00:41:04.351Z,5.52
2018-05-21T00:46:59.341Z,4.94
2018-05-21T00:52:54.350Z,5.86
2018-05-21T00:58:49.405Z,6.11
2018-05-21T01:04:44.363Z,5.88
2018-05-21T01:10:39.362Z,6.05
2018-05-21T01:16:34.387Z,8.35
2018-05-21T01:22:29.377Z,5.48
2018-05-21T01:28:24.359Z,5.6
2018-05-21T01:34:19.353Z,7.06
2018-05-21T01:40:14.375Z,4.98
2018-05-21T01:46:09.364Z,5.99
2018-05-21T01:52:04.441Z,4.9
2018-05-21T01:57:59.393Z,5.41
2018-05-21T02:03:54.360Z,5.48
2018-05-21T02:09:49.385Z,7.47
2018-05-21T02:15:44.369Z,4.94
2018-05-21T02:21:39.400Z,5.59
2018-05-21T02:27:34.405Z,6.13
2018-05-21T02:33:29.396Z,5.84
2018-05-21T02:39:24.397Z,5.66
2018-05-21T02:45:19.409Z,5.42
2018-05-21T02:51:14.444Z,5.61
2018-05-21T02:57:09.402Z,5.62
2018-05-21T03:03:04.443Z,5.82
2018-05-21T03:08:59.408Z,6.04
2018-05-21T03:14:54.440Z,6.02
2018-05-21T03:20:49.498Z,5.87
2018-05-21T03:26:44.490Z,5.31
2018-05-21T03:32:39.448Z,6.13
2018-05-21T03:38:34.467Z,6.25
2018-05-21T03:44:29.485Z,5.6
2018-05-21T03:50:24.472Z,5.8
2018-05-21T03:56:19.440Z,5.92
2018-05-21T04:02:14.417Z,6.4
2018-05-21T04:08:09.489Z,5.87
2018-05-21T04:14:04.469Z,5.83
2018-05-21T04:19:59.499Z,5.82
2018-05-21T04:25:54.477Z,6.52
2018-05-21T04:31:49.462Z,5.93
2018-05-21T04:37:44.462Z,6.45
2018-05-21T04:43:39.472Z,7.37
2018-05-21T04:49:34.479Z,6.16
2018-05-21T04:55:29.490Z,6.6
2018-05-21T05:01:24.519Z,5.6
2018-05-21T05:07:19.508Z,7.09
2018-05-21T05:13:14.476Z,6.97
2018-05-21T05:19:09.515Z,7.43
2018-05-21T05:25:04.552Z,7.21
2018-05-21T05:30:59.496Z,6.82
2018-05-21T05:36:54.523Z,7.16
2018-05-21T05:42:49.533Z,5.44
2018-05-21T05:48:44.571Z,6.28
2018-05-21T05:54:39.508Z,5.83
2018-05-21T06:00:34.531Z,7.46
2018-05-21T06:06:29.516Z,6.67
2018-05-21T06:12:24.528Z,4.87
2018-05-21T06:18:19.538Z,7.22
2018-05-21T06:24:14.585Z,7.01
2018-05-21T06:30:09.530Z,7.31
2018-05-21T06:36:04.533Z,6.28
2018-05-21T06:41:59.549Z,7.49
2018-05-21T06:47:54.555Z,6.56
2018-05-21T06:53:49.597Z,7.55
2018-05-21T06:59:44.611Z,6.51
2018-05-21T07:05:39.556Z,7.28
2018-05-21T07:11:34.666Z,7.46
2018-05-21T07:17:29.541Z,6.47
2018-05-21T07:23:24.550Z,7.41
2018-05-21T07:29:19.553Z,8.01
2018-05-21T07:35:14.588Z,7.52
2018-05-21T07:41:09.650Z,7.41
2018-05-21T07:47:04.561Z,6.51
2018-05-21T07:52:59.554Z,7.59
2018-05-21T07:58:54.557Z,5.38
2018-05-21T08:04:49.605Z,7.07
2018-05-21T08:10:44.603Z,5.92
2018-05-21T08:16:39.601Z,6.01
2018-05-21T08:22:34.610Z,5.8
2018-05-21T08:28:29.637Z,7.54
2018-05-21T08:34:24.617Z,6.43
2018-05-21T08:40:19.645Z,6.98
2018-05-21T08:46:14.626Z,5.91
2018-05-21T08:52:09.683Z,7
2018-05-21T08:58:04.630Z,6.68
2018-05-21T09:03:59.661Z,6.76
2018-05-21T09:09:54.627Z,7.11
2018-05-21T09:15:49.642Z,5.99
2018-05-21T09:21:44.600Z,6.12
2018-05-21T09:27:39.688Z,4.3
2018-05-21T09:33:34.609Z,5.37
2018-05-21T09:39:29.618Z,5.08
2018-05-21T09:45:24.634Z,5.83
2018-05-21T09:51:19.675Z,6.16
2018-05-21T09:57:14.636Z,6.77
2018-05-21T10:03:09.646Z,6.43
2018-05-21T10:09:04.644Z,6.25
2018-05-21T10:14:59.671Z,6.34
2018-05-21T10:20:54.661Z,5.4
2018-05-21T10:26:49.659Z,6.16
2018-05-21T10:32:44.757Z,6.96
2018-05-21T10:38:39.667Z,6.21
2018-05-21T10:44:34.692Z,6.08
2018-05-21T10:50:29.652Z,6.48
2018-05-21T10:56:24.689Z,5.96
2018-05-21T11:02:19.655Z,6.24
2018-05-21T11:08:14.679Z,6.5
2018-05-21T11:14:09.708Z,6.77
2018-05-21T11:20:04.674Z,6.68
2018-05-21T11:25:59.704Z,6.85
2018-05-21T11:31:54.713Z,6.98
2018-05-21T11:37:49.739Z,6.06
2018-05-21T11:43:44.708Z,6.17
2018-05-21T11:49:39.732Z,7.01
2018-05-21T11:55:34.734Z,7.17
2018-05-21T12:01:29.729Z,6.54
2018-05-21T12:07:24.735Z,6.75
2018-05-21T12:13:19.755Z,7.13
2018-05-21T12:19:14.711Z,7.04
2018-05-21T12:25:09.775Z,6.25
2018-05-21T12:31:04.712Z,5.86
2018-05-21T12:36:59.732Z,5.38
2018-05-21T12:42:54.762Z,5.11
2018-05-21T12:48:49.758Z,4.19
2018-05-21T12:54:44.852Z,5.15
2018-05-21T13:00:39.738Z,5.56
2018-05-21T13:06:34.758Z,4.75
2018-05-21T13:12:29.730Z,5.28
2018-05-21T13:18:24.781Z,4.54
2018-05-21T13:24:19.816Z,5.75
2018-05-21T13:30:14.807Z,5.52
2018-05-21T13:36:09.775Z,5.84
2018-05-21T13:42:04.768Z,5.23
2018-05-21T13:47:59.750Z,5.13
2018-05-21T13:53:54.789Z,4.48
2018-05-21T13:59:49.777Z,4.9
2018-05-21T14:05:44.796Z,5.09
2018-05-21T14:11:39.804Z,5.4
2018-05-21T14:17:34.819Z,5.42
2018-05-21T14:23:29.817Z,5.24
2018-05-21T14:29:24.884Z,6.38
2018-05-21T14:35:19.816Z,7.4
2018-05-21T14:41:14.788Z,7.03
2018-05-21T14:47:09.811Z,7.2
2018-05-21T14:53:04.810Z,10.48
2018-05-21T14:58:59.827Z,9.89
2018-05-21T15:04:54.797Z,12.87
2018-05-21T15:10:49.844Z,15.43
2018-05-21T15:16:44.839Z,13.38
2018-05-21T15:22:39.844Z,13.47
2018-05-21T15:28:34.812Z,11.02
2018-05-21T15:34:29.837Z,10.15
2018-05-21T15:40:24.861Z,12.74
2018-05-21T15:46:19.834Z,8.65
2018-05-21T15:52:14.853Z,10.69
2018-05-21T15:58:09.830Z,10.2
2018-05-21T16:04:04.870Z,12.13
2018-05-21T16:09:59.875Z,10.07
2018-05-21T16:15:54.825Z,7.33
2018-05-21T16:21:49.867Z,7.51
2018-05-21T16:27:44.874Z,7.72
2018-05-21T16:33:39.911Z,11.04
2018-05-21T16:39:34.917Z,10.51
2018-05-21T16:45:29.901Z,14.75
2018-05-21T16:51:24.918Z,16.42
2018-05-21T16:57:19.864Z,17.76
2018-05-21T17:03:14.876Z,9.13
2018-05-21T17:09:09.923Z,14.71
2018-05-21T17:15:04.895Z,11.26
2018-05-21T17:20:59.880Z,10.39
2018-05-21T17:26:54.911Z,12.39
2018-05-21T17:32:50.116Z,11.43
2018-05-21T17:38:44.938Z,11.66
2018-05-21T17:44:39.919Z,11.27
2018-05-21T17:50:34.919Z,13.66
2018-05-21T17:56:29.943Z,17.87
2018-05-21T18:02:24.896Z,12.53
2018-05-21T18:08:19.936Z,8.09
2018-05-21T18:14:14.931Z,11.53
2018-05-21T18:20:09.948Z,8
2018-05-21T18:26:04.937Z,9.3
2018-05-21T18:31:59.969Z,16.23
2018-05-21T18:37:54.957Z,12.85
2018-05-21T18:43:49.925Z,12.88
2018-05-21T18:49:44.950Z,10.18
2018-05-21T18:55:39.936Z,9.53
2018-05-21T19:01:34.959Z,10.26
2018-05-21T19:07:29.976Z,10.45
2018-05-21T19:13:24.967Z,9.67
2018-05-21T19:19:19.964Z,12.13
2018-05-21T19:25:14.990Z,12.42
2018-05-21T19:31:09.960Z,11.94
2018-05-21T19:37:05.018Z,11.17
2018-05-21T19:42:59.962Z,12.24
2018-05-21T19:48:54.962Z,11.33
2018-05-21T19:54:49.980Z,10.17
2018-05-21T20:00:44.974Z,12.11
2018-05-21T20:06:40.061Z,12.18
2018-05-21T20:12:34.981Z,12.01
2018-05-21T20:18:30.040Z,11.39
2018-05-21T20:24:24.990Z,9.11
2018-05-21T20:30:19.984Z,9.39
2018-05-21T20:36:15.033Z,11.55
2018-05-21T20:42:10.032Z,10.52
2018-05-21T20:48:05.012Z,8.18
2018-05-21T20:54:00.021Z,9.7
2018-05-21T20:59:55.032Z,12.04
2018-05-21T21:05:50.003Z,11.79
2018-05-21T21:11:45.030Z,12.18
2018-05-21T21:17:40.074Z,11.15
2018-05-21T21:23:35.022Z,11.67
2018-05-21T21:29:30.037Z,10.82
2018-05-21T21:35:25.053Z,11.16
2018-05-21T21:41:20.021Z,9.53
2018-05-21T21:47:15.048Z,10.15
2018-05-21T21:53:10.026Z,10.63
2018-05-21T21:59:05.039Z,10.92
2018-05-21T22:05:00.120Z,10.98
2018-05-21T22:10:55.050Z,10.98
2018-05-21T22:16:50.066Z,11.85
2018-05-21T22:22:45.049Z,12.06
2018-05-21T22:28:40.052Z,13.17
2018-05-21T22:34:35.056Z,13.36
2018-05-21T22:40:30.142Z,13.14
2018-05-21T22:46:25.072Z,14.19
2018-05-21T22:52:20.090Z,14.57
2018-05-21T22:58:15.089Z,15.13
2018-05-21T23:04:10.063Z,11.85
2018-05-21T23:10:05.087Z,10.93
2018-05-21T23:16:00.105Z,9.65
2018-05-21T23:21:55.122Z,9.63
2018-05-21T23:27:50.072Z,9.87
2018-05-21T23:33:45.199Z,8.65
2018-05-21T23:39:40.111Z,9.99
2018-05-21T23:45:35.117Z,12.18
2018-05-21T23:51:30.123Z,11.65
2018-05-21T23:57:25.152Z,11.96
